createdAt,value
2023-03-19T00:02:51.951Z,101477.59
2023-03-19T00:05:57.106Z,101470.94
2023-03-19T00:09:02.247Z,101471.72
2023-03-19T00:12:08.985Z,101476.81
2023-03-19T00:15:16.543Z,101465.78
2023-03-19T00:18:21.983Z,101464.13
2023-03-19T00:21:29.004Z,101485.22
2023-03-19T00:24:35.764Z,101479.31
2023-03-19T00:27:40.811Z,101481.78
2023-03-19T00:30:47.364Z,101475.09
2023-03-19T00:33:53.287Z,101476.75
2023-03-19T00:36:58.659Z,101483.50
2023-03-19T00:40:04.552Z,101483.53
2023-03-19T00:43:12.299Z,101486.84
2023-03-19T00:46:19.211Z,101483.53
2023-03-19T00:49:24.808Z,101491.13
2023-03-19T00:52:30.038Z,101489.44
2023-03-19T00:55:35.373Z,101487.78
2023-03-19T00:58:41.241Z,101494.50
2023-03-19T01:01:47.863Z,101512.84
2023-03-19T01:04:53.415Z,101500.28
2023-03-19T01:07:58.467Z,101507.91
2023-03-19T01:11:08.287Z,101496.13
2023-03-19T01:14:14.764Z,101500.41
2023-03-19T01:17:21.623Z,101504.59
2023-03-19T01:20:27.230Z,101498.69
2023-03-19T01:23:32.624Z,101498.69
2023-03-19T01:26:38.644Z,101503.69
2023-03-19T01:30:11.194Z,101516.94
2023-03-19T01:33:56.328Z,101512.91
2023-03-19T01:37:14.195Z,101526.50
2023-03-19T01:40:21.067Z,101514.75
2023-03-19T01:43:27.424Z,101524.69
2023-03-19T01:46:37.654Z,101524.66
2023-03-19T01:50:04.543Z,101528.88
2023-03-19T01:53:12.601Z,101530.59
2023-03-19T01:56:29.811Z,101525.63
2023-03-19T01:59:56.628Z,101525.63
2023-03-19T02:03:20.316Z,101534.91
2023-03-19T02:06:34.963Z,101535.81
2023-03-19T02:09:42.085Z,101539.25
2023-03-19T02:12:47.222Z,101535.72
2023-03-19T02:15:52.878Z,101542.59
2023-03-19T02:18:59.184Z,101536.72
2023-03-19T02:22:06.928Z,101529.97
2023-03-19T02:25:14.726Z,101545.22
2023-03-19T02:28:24.367Z,101535.97
2023-03-19T02:31:31.691Z,101540.19
2023-03-19T02:34:41.675Z,101550.31
2023-03-19T02:37:47.095Z,101535.97
2023-03-19T02:40:54.938Z,101541.03
2023-03-19T02:44:03.575Z,101560.41
2023-03-19T02:47:09.470Z,101547.75
2023-03-19T02:50:14.792Z,101561.25
2023-03-19T02:53:20.784Z,101567.09
2023-03-19T02:56:26.318Z,101556.91
2023-03-19T02:59:33.118Z,101568.81
2023-03-19T03:02:38.692Z,101573.06
2023-03-19T03:05:44.272Z,101573.94
2023-03-19T03:08:49.415Z,101578.06
2023-03-19T03:11:54.547Z,101578.94
2023-03-19T03:15:01.098Z,101590.78
2023-03-19T03:18:06.524Z,101600.97
2023-03-19T03:21:11.825Z,101599.06
2023-03-19T03:24:16.905Z,101598.91
2023-03-19T03:27:22.083Z,101599.56
2023-03-19T03:30:28.744Z,101605.63
2023-03-19T03:33:34.128Z,101598.72
2023-03-19T03:36:39.209Z,101604.94
2023-03-19T03:39:44.739Z,101607.50
2023-03-19T03:42:50.382Z,101608.16
2023-03-19T03:45:57.030Z,101600.50
2023-03-19T03:49:02.614Z,101613.94
2023-03-19T03:52:08.562Z,101614.06
2023-03-19T03:55:14.202Z,101615.00
2023-03-19T03:58:19.349Z,101615.06
2023-03-19T04:01:26.253Z,101604.16
2023-03-19T04:04:34.110Z,101610.88
2023-03-19T04:07:39.838Z,101611.63
2023-03-19T04:10:45.612Z,101613.47
2023-03-19T04:13:50.773Z,101607.56
2023-03-19T04:16:57.323Z,101612.63
2023-03-19T04:20:02.638Z,101610.94
2023-03-19T04:23:07.829Z,101615.16
2023-03-19T04:26:14.915Z,101628.38
2023-03-19T04:29:20.030Z,101621.88
2023-03-19T04:32:27.158Z,101640.47
2023-03-19T04:35:32.628Z,101624.41
2023-03-19T04:38:38.336Z,101618.59
2023-03-19T04:41:43.434Z,101617.69
2023-03-19T04:45:04.682Z,101622.81
2023-03-19T04:48:12.740Z,101619.44
2023-03-19T04:51:21.331Z,101618.50
2023-03-19T04:54:27.726Z,101620.06
2023-03-19T04:57:33.139Z,101639.44
2023-03-19T05:00:39.320Z,101642.03
2023-03-19T05:03:47.350Z,101637.69
2023-03-19T05:06:54.076Z,101641.19
2023-03-19T05:09:59.339Z,101633.66
2023-03-19T05:13:04.661Z,101635.34
2023-03-19T05:16:13.988Z,101631.91
2023-03-19T05:19:20.747Z,101632.72
2023-03-19T05:22:26.424Z,101629.41
2023-03-19T05:25:36.466Z,101641.94
2023-03-19T05:28:45.470Z,101646.94
2023-03-19T05:31:52.111Z,101650.50
2023-03-19T05:35:00.330Z,101648.69
2023-03-19T05:38:05.738Z,101653.00
2023-03-19T05:41:13.157Z,101652.31
2023-03-19T05:44:32.478Z,101660.56
2023-03-19T05:47:51.934Z,101661.47
2023-03-19T05:51:00.014Z,101657.38
2023-03-19T05:54:11.199Z,101665.38
2023-03-19T05:57:55.659Z,101681.34
2023-03-19T06:01:04.276Z,101693.25
2023-03-19T06:04:10.970Z,101689.38
2023-03-19T06:07:18.596Z,101695.34
2023-03-19T06:10:25.062Z,101700.56
2023-03-19T06:13:33.558Z,101697.16
2023-03-19T06:16:43.065Z,101701.53
2023-03-19T06:19:48.207Z,101702.38
2023-03-19T06:22:54.946Z,101709.19
2023-03-19T06:26:00.872Z,101699.72
2023-03-19T06:29:12.335Z,101709.66
2023-03-19T06:32:18.862Z,101703.88
2023-03-19T06:35:26.249Z,101715.00
2023-03-19T06:38:33.494Z,101714.22
2023-03-19T06:41:38.719Z,101720.19
2023-03-19T06:44:53.547Z,101721.84
2023-03-19T06:47:59.070Z,101717.72
2023-03-19T06:51:04.349Z,101721.06
2023-03-19T06:54:11.872Z,101722.03
2023-03-19T06:57:17.070Z,101727.81
2023-03-19T07:00:22.844Z,101727.72
2023-03-19T07:03:28.044Z,101730.44
2023-03-19T07:06:33.725Z,101726.91
2023-03-19T07:09:41.040Z,101743.59
2023-03-19T07:12:46.286Z,101742.97
2023-03-19T07:15:51.379Z,101742.19
2023-03-19T07:18:57.078Z,101741.47
2023-03-19T07:22:02.537Z,101752.50
2023-03-19T07:25:10.218Z,101751.66
2023-03-19T07:28:15.475Z,101760.88
2023-03-19T07:31:20.576Z,101756.63
2023-03-19T07:34:26.350Z,101748.22
2023-03-19T07:37:31.680Z,101757.34
2023-03-19T07:40:40.027Z,101755.63
2023-03-19T07:43:48.692Z,101743.75
2023-03-19T07:46:53.789Z,101755.81
2023-03-19T07:49:59.302Z,101761.75
2023-03-19T07:53:04.292Z,101756.75
2023-03-19T07:56:11.530Z,101761.81
2023-03-19T07:59:17.010Z,101761.16
2023-03-19T08:02:23.588Z,101763.34
2023-03-19T08:05:29.169Z,101782.56
2023-03-19T08:08:35.103Z,101783.78
2023-03-19T08:11:41.922Z,101788.94
2023-03-19T08:14:47.118Z,101773.84
2023-03-19T08:17:58.493Z,101778.13
2023-03-19T08:21:03.973Z,101773.66
2023-03-19T08:24:09.222Z,101772.13
2023-03-19T08:27:16.005Z,101772.25
2023-03-19T08:30:21.138Z,101767.13
2023-03-19T08:33:26.317Z,101770.50
2023-03-19T08:36:31.634Z,101761.31
2023-03-19T08:39:36.854Z,101773.09
2023-03-19T08:42:45.188Z,101774.69
2023-03-19T08:45:51.519Z,101784.69
2023-03-19T08:48:57.419Z,101778.94
2023-03-19T08:52:03.008Z,101778.97
2023-03-19T08:55:09.431Z,101774.75
2023-03-19T08:58:15.931Z,101775.66
2023-03-19T09:01:21.034Z,101774.00
2023-03-19T09:04:26.292Z,101773.09
2023-03-19T09:07:31.711Z,101779.91
2023-03-19T09:10:37.178Z,101788.22
2023-03-19T09:13:43.928Z,101799.22
2023-03-19T09:16:49.324Z,101796.94
2023-03-19T09:19:54.439Z,101791.03
2023-03-19T09:22:59.537Z,101793.50
2023-03-19T09:26:04.681Z,101795.25
2023-03-19T09:29:11.477Z,101796.00
2023-03-19T09:32:16.805Z,101796.91
2023-03-19T09:35:22.395Z,101802.06
2023-03-19T09:38:28.463Z,101796.25
2023-03-19T09:41:40.476Z,101792.03
2023-03-19T09:44:47.754Z,101786.16
2023-03-19T09:47:57.108Z,101786.91
2023-03-19T09:51:03.649Z,101796.25
2023-03-19T09:54:14.958Z,101792.03
2023-03-19T09:57:20.393Z,101808.78
2023-03-19T10:00:29.404Z,101804.66
2023-03-19T10:03:46.747Z,101795.44
2023-03-19T10:06:53.046Z,101797.09
2023-03-19T10:10:12.932Z,101797.94
2023-03-19T10:13:27.514Z,101798.81
2023-03-19T10:16:34.119Z,101803.94
2023-03-19T10:19:43.934Z,101797.13
2023-03-19T10:22:52.870Z,101797.25
2023-03-19T10:26:01.270Z,101797.28
2023-03-19T10:29:08.622Z,101781.16
2023-03-19T10:32:20.347Z,101783.72
2023-03-19T10:35:29.086Z,101783.72
2023-03-19T10:38:34.429Z,101789.66
2023-03-19T10:41:51.325Z,101786.25
2023-03-19T10:45:01.018Z,101786.25
2023-03-19T10:48:08.482Z,101798.09
2023-03-19T10:51:15.791Z,101798.91
2023-03-19T10:54:23.191Z,101791.34
2023-03-19T10:57:31.870Z,101794.75
2023-03-19T11:00:37.540Z,101788.81
2023-03-19T11:03:53.080Z,101801.50
2023-03-19T11:07:03.491Z,101806.56
2023-03-19T11:10:16.632Z,101810.00
2023-03-19T11:13:26.138Z,101804.06
2023-03-19T11:16:31.437Z,101805.75
2023-03-19T11:19:42.746Z,101788.81
2023-03-19T11:22:48.361Z,101803.19
2023-03-19T11:25:55.404Z,101791.34
2023-03-19T11:29:06.056Z,101804.91
2023-03-19T11:32:32.391Z,101788.81
2023-03-19T11:35:42.298Z,101782.00
2023-03-19T11:39:00.728Z,101782.00
2023-03-19T11:42:24.200Z,101783.72
2023-03-19T11:45:34.907Z,101770.13
2023-03-19T11:49:05.088Z,101769.28
2023-03-19T11:52:18.446Z,101767.59
2023-03-19T11:55:29.982Z,101770.13
2023-03-19T11:58:51.780Z,101761.69
2023-03-19T12:02:20.384Z,101767.59
2023-03-19T12:05:30.555Z,101765.88
2023-03-19T12:08:43.757Z,101756.53
2023-03-19T12:11:55.146Z,101748.09
2023-03-19T12:15:12.357Z,101758.22
2023-03-19T12:18:25.462Z,101757.31
2023-03-19T12:21:33.248Z,101751.38
2023-03-19T12:24:50.845Z,101752.31
2023-03-19T12:27:58.387Z,101752.31
2023-03-19T12:31:35.960Z,101753.19
2023-03-19T12:34:44.772Z,101748.09
2023-03-19T12:38:01.118Z,101758.25
2023-03-19T12:41:11.582Z,101743.00
2023-03-19T12:44:21.921Z,101733.69
2023-03-19T12:47:31.031Z,101737.94
2023-03-19T12:50:39.683Z,101725.16
2023-03-19T12:53:49.149Z,101732.81
2023-03-19T12:57:00.997Z,101732.78
2023-03-19T13:00:12.494Z,101723.44
2023-03-19T13:03:20.761Z,101716.66
2023-03-19T13:06:29.738Z,101717.56
2023-03-19T13:09:40.745Z,101720.91
2023-03-19T13:12:47.649Z,101714.13
2023-03-19T13:15:55.895Z,101707.38
2023-03-19T13:19:09.233Z,101709.06
2023-03-19T13:22:18.837Z,101707.25
2023-03-19T13:25:27.236Z,101707.31
2023-03-19T13:28:37.014Z,101711.59
2023-03-19T13:31:43.346Z,101698.03
2023-03-19T13:34:48.606Z,101700.56
2023-03-19T13:37:58.329Z,101704.81
2023-03-19T13:41:03.590Z,101705.63
2023-03-19T13:44:30.809Z,101706.47
2023-03-19T13:47:44.306Z,101698.84
2023-03-19T13:50:56.076Z,101714.94
2023-03-19T13:54:08.663Z,101708.16
2023-03-19T13:57:35.734Z,101703.06
2023-03-19T14:01:01.366Z,101698.00
2023-03-19T14:04:07.844Z,101712.34
2023-03-19T14:07:14.399Z,101708.16
2023-03-19T14:10:23.258Z,101703.91
2023-03-19T14:13:34.690Z,101689.47
2023-03-19T14:16:46.546Z,101692.78
2023-03-19T14:19:52.949Z,101693.66
2023-03-19T14:23:13.049Z,101678.28
2023-03-19T14:26:24.353Z,101683.41
2023-03-19T14:29:30.934Z,101680.09
2023-03-19T14:32:41.075Z,101680.22
2023-03-19T14:35:48.364Z,101671.66
2023-03-19T14:38:55.694Z,101674.25
2023-03-19T14:42:04.887Z,101674.28
2023-03-19T14:45:41.777Z,101670.91
2023-03-19T14:49:30.013Z,101672.44
2023-03-19T14:52:39.742Z,101667.38
2023-03-19T14:55:44.884Z,101664.03
2023-03-19T14:58:51.815Z,101671.69
2023-03-19T15:01:56.958Z,101670.00
2023-03-19T15:05:04.889Z,101667.44
2023-03-19T15:08:14.442Z,101659.81
2023-03-19T15:11:37.443Z,101649.56
2023-03-19T15:14:56.641Z,101645.38
2023-03-19T15:18:04.765Z,101647.00
2023-03-19T15:21:11.525Z,101643.75
2023-03-19T15:24:17.966Z,101645.38
2023-03-19T15:27:24.469Z,101631.03
2023-03-19T15:30:30.489Z,101645.50
2023-03-19T15:33:41.906Z,101651.47
2023-03-19T15:36:51.427Z,101638.75
2023-03-19T15:39:58.114Z,101637.13
2023-03-19T15:43:04.271Z,101647.34
2023-03-19T15:46:11.980Z,101646.47
2023-03-19T15:49:20.868Z,101638.81
2023-03-19T15:52:28.471Z,101649.81
2023-03-19T15:55:36.500Z,101649.84
2023-03-19T15:58:47.661Z,101649.78
2023-03-19T16:01:52.596Z,101654.06
2023-03-19T16:08:27.384Z,101652.41
2023-03-19T16:11:35.402Z,101653.25
2023-03-19T16:14:45.625Z,101655.78
2023-03-19T16:17:50.964Z,101657.50
2023-03-19T16:21:07.560Z,101643.09
2023-03-19T16:24:24.626Z,101647.34
2023-03-19T16:27:36.184Z,101657.50
2023-03-19T16:30:48.070Z,101660.03
2023-03-19T16:33:54.037Z,101657.47
2023-03-19T16:36:59.642Z,101659.16
2023-03-19T16:40:42.476Z,101665.09
2023-03-19T16:43:48.095Z,101663.41
2023-03-19T16:46:53.240Z,101674.38
2023-03-19T16:49:58.468Z,101676.06
2023-03-19T16:53:05.904Z,101667.63
2023-03-19T16:56:15.957Z,101656.63
2023-03-19T16:59:25.283Z,101667.63
2023-03-19T17:02:30.397Z,101667.63
2023-03-19T17:05:36.419Z,101652.41
2023-03-19T17:08:42.130Z,101659.16
2023-03-19T17:11:48.643Z,101652.41
2023-03-19T17:14:54.447Z,101651.53
2023-03-19T17:18:00.793Z,101647.25
2023-03-19T17:21:09.380Z,101646.47
2023-03-19T17:24:23.584Z,101654.06
2023-03-19T17:27:32.437Z,101665.06
2023-03-19T17:30:40.580Z,101659.13
2023-03-19T17:33:45.623Z,101653.22
2023-03-19T17:36:52.904Z,101648.19
2023-03-19T17:39:58.350Z,101664.13
2023-03-19T17:43:06.825Z,101650.69
2023-03-19T17:46:17.076Z,101637.16
2023-03-19T17:49:24.336Z,101643.06
2023-03-19T17:52:30.528Z,101646.44
2023-03-19T17:55:35.618Z,101650.69
2023-03-19T17:58:42.062Z,101649.81
2023-03-19T18:01:48.346Z,101643.84
2023-03-19T18:04:53.822Z,101642.19
2023-03-19T18:07:59.162Z,101643.72
2023-03-19T18:11:04.757Z,101651.38
2023-03-19T18:14:11.306Z,101642.06
2023-03-19T18:17:17.970Z,101641.97
2023-03-19T18:20:25.345Z,101645.38
2023-03-19T18:23:31.215Z,101647.97
2023-03-19T18:26:36.237Z,101643.78
2023-03-19T18:29:43.156Z,101643.75
2023-03-19T18:32:49.336Z,101632.69
2023-03-19T18:35:55.512Z,101640.31
2023-03-19T18:39:00.739Z,101639.47
2023-03-19T18:42:06.455Z,101632.69
2023-03-19T18:45:14.248Z,101631.00
2023-03-19T18:48:24.959Z,101630.84
2023-03-19T18:51:30.198Z,101616.66
2023-03-19T18:54:35.446Z,101622.50
2023-03-19T18:57:52.417Z,101618.16
2023-03-19T19:01:01.552Z,101620.63
2023-03-19T19:04:08.181Z,101599.50
2023-03-19T19:07:15.226Z,101624.75
2023-03-19T19:10:20.688Z,101629.06
2023-03-19T19:13:30.388Z,101626.47
2023-03-19T19:16:40.472Z,101625.56
2023-03-19T19:19:45.763Z,101622.97
2023-03-19T19:22:51.748Z,101616.28
2023-03-19T19:25:57.288Z,101629.63
2023-03-19T19:29:03.122Z,101627.34
2023-03-19T19:32:19.734Z,101624.66
2023-03-19T19:35:27.020Z,101626.28
2023-03-19T19:38:32.650Z,101626.31
2023-03-19T19:41:38.026Z,101622.84
2023-03-19T19:44:44.343Z,101615.16
2023-03-19T19:47:51.200Z,101625.19
2023-03-19T19:50:57.259Z,101615.97
2023-03-19T19:54:02.285Z,101614.38
2023-03-19T19:57:11.379Z,101616.00
2023-03-19T20:00:23.174Z,101612.78
2023-03-19T20:03:32.344Z,101611.13
2023-03-19T20:06:37.491Z,101614.28
2023-03-19T20:09:42.745Z,101611.81
2023-03-19T20:12:48.944Z,101609.28
2023-03-19T20:15:55.091Z,101607.31
2023-03-19T20:19:01.605Z,101617.38
2023-03-19T20:22:07.255Z,101605.53
2023-03-19T20:25:12.894Z,101614.53
2023-03-19T20:28:23.641Z,101611.31
2023-03-19T20:31:31.174Z,101598.59
2023-03-19T20:34:39.668Z,101604.63
2023-03-19T20:37:44.961Z,101601.13
2023-03-19T20:40:51.992Z,101601.31
2023-03-19T20:43:57.801Z,101593.47
2023-03-19T20:47:03.430Z,101592.38
2023-03-19T20:50:18.737Z,101602.50
2023-03-19T20:53:24.176Z,101590.66
2023-03-19T20:56:30.833Z,101590.84
2023-03-19T20:59:36.449Z,101575.75
2023-03-19T21:02:41.577Z,101587.41
2023-03-19T21:05:48.482Z,101581.47
2023-03-19T21:08:57.662Z,101578.09
2023-03-19T21:12:02.979Z,101585.03
2023-03-19T21:15:11.085Z,101591.03
2023-03-19T21:18:16.475Z,101588.44
2023-03-19T21:21:31.137Z,101578.41
2023-03-19T21:24:36.328Z,101582.66
2023-03-19T21:27:42.174Z,101575.16
2023-03-19T21:30:48.769Z,101561.66
2023-03-19T21:33:56.449Z,101573.47
2023-03-19T21:37:04.756Z,101562.59
2023-03-19T21:40:16.172Z,101565.84
2023-03-19T21:43:23.736Z,101569.19
2023-03-19T21:46:30.916Z,101565.59
2023-03-19T21:49:36.620Z,101563.06
2023-03-19T21:52:57.768Z,101559.75
2023-03-19T21:56:04.798Z,101557.09
2023-03-19T21:59:15.300Z,101559.63
2023-03-19T22:02:51.314Z,101554.84
2023-03-19T22:05:56.985Z,101546.53
2023-03-19T22:09:04.338Z,101554.78
2023-03-19T22:12:12.160Z,101538.56
2023-03-19T22:15:36.615Z,101543.44
2023-03-19T22:18:42.160Z,101544.31
2023-03-19T22:21:48.024Z,101540.81
2023-03-19T22:24:56.378Z,101546.50
2023-03-19T22:28:01.561Z,101542.22
2023-03-19T22:31:07.026Z,101531.91
2023-03-19T22:34:16.459Z,101536.44
2023-03-19T22:37:27.602Z,101536.31
2023-03-19T22:40:34.220Z,101515.50
2023-03-19T22:43:40.084Z,101526.06
2023-03-19T22:46:45.268Z,101512.56
2023-03-19T22:49:50.815Z,101511.91
2023-03-19T22:52:56.747Z,101502.72
2023-03-19T22:56:03.762Z,101502.41
2023-03-19T22:59:08.903Z,101486.56
2023-03-19T23:02:16.380Z,101473.16
2023-03-19T23:05:28.280Z,101473.34
2023-03-19T23:08:33.548Z,101468.78
2023-03-19T23:11:40.115Z,101477.22
2023-03-19T23:14:45.136Z,101465.34
2023-03-19T23:17:52.579Z,101461.03
2023-03-19T23:20:58.234Z,101455.09
2023-03-19T23:24:03.369Z,101452.00
2023-03-19T23:27:23.420Z,101456.94
2023-03-19T23:30:31.617Z,101453.78
2023-03-19T23:33:37.271Z,101450.47
2023-03-19T23:36:42.590Z,101441.19
2023-03-19T23:39:48.225Z,101432.63
2023-03-19T23:42:56.467Z,101424.03
2023-03-19T23:46:02.403Z,101428.53
2023-03-19T23:49:10.121Z,101427.41
2023-03-19T23:52:15.766Z,101417.22
2023-03-19T23:55:21.231Z,101413.91
2023-03-19T23:58:30.741Z,101405.47
